Time;durP1;ratioP1;P1;durP2;ratioP2;P2;SDS_P1;SDS_P2;PMS_P1;PMS_P2;Temp;Humidity;BMP_temperature;BMP_pressure;BME280_temperature;BME280_humidity;BME280_pressure;Samples;Min_cycle;Max_cycle;Signal;HPM_P1;HPM_P2
2022/08/09 00:01:59;;;;;;;3.03;1.80;;;;;;;;;;5057965;28;20032;-83
2022/08/09 00:04:25;;;;;;;3.60;1.98;;;;;;;;;;5074103;28;20040;-83
2022/08/09 00:06:50;;;;;;;2.15;1.80;;;;;;;;;;5076028;28;20632;-83
2022/08/09 00:09:16;;;;;;;2.85;2.08;;;;;;;;;;5074677;28;20089;-83
2022/08/09 00:11:43;;;;;;;1.90;1.67;;;;;;;;;;5075958;28;20028;-83
2022/08/09 00:14:08;;;;;;;2.40;2.00;;;;;;;;;;5075303;28;20495;-82
2022/08/09 00:16:34;;;;;;;2.35;1.98;;;;;;;;;;5075547;28;20029;-83
2022/08/09 00:19:00;;;;;;;3.67;2.10;;;;;;;;;;5076032;28;20060;-82
2022/08/09 00:21:26;;;;;;;2.70;2.08;;;;;;;;;;5075500;28;20048;-83
2022/08/09 00:23:51;;;;;;;3.05;2.10;;;;;;;;;;5075749;28;20052;-83
2022/08/09 00:26:17;;;;;;;4.80;2.10;;;;;;;;;;5075018;28;20036;-82
2022/08/09 00:28:42;;;;;;;2.88;2.20;;;;;;;;;;5075780;28;20094;-83
2022/08/09 00:31:08;;;;;;;2.97;2.10;;;;;;;;;;5075904;28;20417;-83
2022/08/09 00:33:34;;;;;;;3.03;2.25;;;;;;;;;;5057070;28;20428;-83
2022/08/09 00:36:01;;;;;;;4.35;2.35;;;;;;;;;;5056977;28;20112;-83
2022/08/09 00:38:27;;;;;;;3.63;2.30;;;;;;;;;;5075891;28;20112;-83
2022/08/09 00:40:52;;;;;;;3.70;2.20;;;;;;;;;;5057918;28;20059;-83
2022/08/09 00:43:20;;;;;;;4.45;2.20;;;;;;;;;;5075403;28;20064;-83
2022/08/09 00:45:45;;;;;;;3.97;2.03;;;;;;;;;;5074816;28;20076;-83
2022/08/09 00:48:11;;;;;;;2.67;2.08;;;;;;;;;;5057109;28;20036;-84
2022/08/09 00:50:36;;;;;;;5.05;2.60;;;;;;;;;;5074878;28;20047;-83
2022/08/09 00:53:03;;;;;;;2.75;2.20;;;;;;;;;;5075316;28;20036;-83
2022/08/09 00:55:28;;;;;;;2.58;2.00;;;;;;;;;;5074787;28;20116;-83
2022/08/09 00:57:54;;;;;;;6.32;2.42;;;;;;;;;;5075399;28;20028;-83
2022/08/09 01:00:20;;;;;;;2.40;2.17;;;;;;;;;;5056852;28;20039;-82
2022/08/09 01:02:48;;;;;;;3.40;1.92;;;;;;;;;;5056937;28;20106;-83
2022/08/09 01:05:34;;;;;;;3.17;1.92;;;;;;;;;;5074806;28;20032;-82
2022/08/09 01:08:15;;;;;;;2.40;1.90;;;;;;;;;;5056805;28;20047;-82
2022/08/09 01:11:12;;;;;;;4.10;1.95;;;;;;;;;;5056496;28;20032;-82
2022/08/09 01:13:54;;;;;;;2.65;1.83;;;;;;;;;;5056920;28;20229;-84
2022/08/09 01:16:23;;;;;;;1.90;1.70;;;;;;;;;;5056843;28;20032;-84
2022/08/09 01:18:50;;;;;;;2.40;1.90;;;;;;;;;;5074113;28;20111;-83
2022/08/09 01:21:36;;;;;;;2.22;1.90;;;;;;;;;;5075094;28;20056;-82
2022/08/09 01:24:48;;;;;;;2.88;2.00;;;;;;;;;;5056158;28;20032;-83
2022/08/09 01:27:17;;;;;;;2.67;2.10;;;;;;;;;;5058324;28;20052;-82
2022/08/09 01:29:47;;;;;;;2.67;1.98;;;;;;;;;;5074580;28;20042;-82
2022/08/09 01:32:15;;;;;;;4.20;2.10;;;;;;;;;;5074985;28;20032;-82
2022/08/09 01:34:43;;;;;;;2.50;1.90;;;;;;;;;;5056183;28;20043;-82
2022/08/09 01:37:11;;;;;;;3.15;2.08;;;;;;;;;;5074829;28;20035;-83
2022/08/09 01:39:39;;;;;;;2.33;2.00;;;;;;;;;;5074552;28;20043;-83
2022/08/09 01:42:06;;;;;;;2.45;1.92;;;;;;;;;;5056640;28;20032;-84
2022/08/09 01:44:33;;;;;;;2.45;1.90;;;;;;;;;;5074050;28;20473;-81
2022/08/09 01:47:01;;;;;;;2.28;1.90;;;;;;;;;;5074737;28;20033;-84
2022/08/09 01:49:29;;;;;;;2.45;1.98;;;;;;;;;;5073946;28;20033;-83
2022/08/09 01:51:57;;;;;;;2.05;1.80;;;;;;;;;;5056737;28;20048;-83
2022/08/09 01:54:32;;;;;;;2.20;1.80;;;;;;;;;;5074087;28;20028;-83
2022/08/09 01:57:01;;;;;;;2.05;1.85;;;;;;;;;;5074793;28;20040;-83
2022/08/09 01:59:28;;;;;;;3.10;1.77;;;;;;;;;;5074585;28;20391;-83
2022/08/09 02:01:55;;;;;;;2.38;1.95;;;;;;;;;;5074804;28;20040;-82
2022/08/09 02:04:23;;;;;;;2.50;2.08;;;;;;;;;;5056022;28;20042;-83
2022/08/09 02:07:10;;;;;;;3.95;2.08;;;;;;;;;;5039768;28;20040;-82
2022/08/09 02:09:39;;;;;;;4.22;2.20;;;;;;;;;;5055648;28;20496;-83
2022/08/09 02:12:07;;;;;;;2.15;1.88;;;;;;;;;;5074865;28;20037;-83
2022/08/09 02:14:34;;;;;;;3.50;1.90;;;;;;;;;;5073800;28;20025;-82
2022/08/09 02:17:00;;;;;;;5.40;1.85;;;;;;;;;;5074327;28;20035;-82
2022/08/09 02:19:26;;;;;;;2.80;1.92;;;;;;;;;;5056750;28;20508;-82
2022/08/09 02:21:55;;;;;;;5.22;2.20;;;;;;;;;;5056504;28;20523;-82
2022/08/09 02:24:25;;;;;;;5.10;2.03;;;;;;;;;;5073405;28;20044;-82
2022/08/09 02:26:54;;;;;;;4.28;1.90;;;;;;;;;;5074339;28;20033;-82
2022/08/09 02:29:21;;;;;;;3.70;2.00;;;;;;;;;;5058135;28;20055;-82
2022/08/09 02:31:49;;;;;;;3.13;2.00;;;;;;;;;;5061209;28;20119;-82
2022/08/09 02:34:19;;;;;;;3.42;2.17;;;;;;;;;;5059027;28;20040;-82
2022/08/09 02:36:51;;;;;;;3.75;2.00;;;;;;;;;;5059639;28;20485;-82
2022/08/09 02:39:21;;;;;;;3.97;2.20;;;;;;;;;;5077404;28;20041;-82
2022/08/09 02:41:57;;;;;;;3.63;2.15;;;;;;;;;;5077033;28;20028;-82
2022/08/09 02:44:26;;;;;;;3.78;2.28;;;;;;;;;;5058803;28;20051;-82
2022/08/09 02:46:55;;;;;;;4.43;1.90;;;;;;;;;;5059877;28;20032;-82
2022/08/09 02:49:21;;;;;;;2.92;2.20;;;;;;;;;;5078015;28;20082;-82
2022/08/09 02:51:52;;;;;;;7.95;1.90;;;;;;;;;;5077251;28;20040;-81
2022/08/09 02:54:20;;;;;;;2.20;2.00;;;;;;;;;;5059406;28;20058;-82
2022/08/09 02:56:48;;;;;;;4.30;2.00;;;;;;;;;;5059788;28;20393;-82
2022/08/09 02:59:15;;;;;;;2.28;1.80;;;;;;;;;;5077275;28;20043;-83
2022/08/09 03:01:43;;;;;;;3.28;1.80;;;;;;;;;;5077229;28;20111;-82
2022/08/09 03:04:12;;;;;;;2.55;2.00;;;;;;;;;;5058346;28;20426;-82
2022/08/09 03:06:40;;;;;;;2.13;1.80;;;;;;;;;;5076135;28;20508;-82
2022/08/09 03:09:07;;;;;;;3.75;2.65;;;;;;;;;;5075821;28;20036;-82
2022/08/09 03:11:33;;;;;;;3.10;2.50;;;;;;;;;;5076647;28;20040;-82
2022/08/09 03:14:00;;;;;;;4.00;2.10;;;;;;;;;;5076391;28;20060;-82
2022/08/09 03:16:27;;;;;;;3.95;2.20;;;;;;;;;;5076782;28;20036;-82
2022/08/09 03:18:55;;;;;;;2.38;1.95;;;;;;;;;;5058963;28;20044;-82
2022/08/09 03:21:22;;;;;;;2.58;2.00;;;;;;;;;;5059124;28;20047;-82
2022/08/09 03:23:48;;;;;;;3.30;2.30;;;;;;;;;;5076624;28;20084;-82
2022/08/09 03:26:16;;;;;;;4.60;2.00;;;;;;;;;;5076681;28;20037;-82
2022/08/09 03:28:42;;;;;;;3.00;2.00;;;;;;;;;;5076540;28;20481;-82
2022/08/09 03:31:09;;;;;;;2.72;2.00;;;;;;;;;;5076777;28;20054;-83
2022/08/09 03:33:36;;;;;;;2.55;1.90;;;;;;;;;;5076705;28;20037;-82
2022/08/09 03:36:03;;;;;;;2.10;1.90;;;;;;;;;;5041774;28;20044;-82
2022/08/09 03:38:29;;;;;;;3.42;2.10;;;;;;;;;;5058554;28;20020;-82
2022/08/09 03:40:55;;;;;;;2.47;2.20;;;;;;;;;;5075375;28;20034;-82
2022/08/09 03:43:20;;;;;;;2.75;2.17;;;;;;;;;;5076440;28;20479;-82
2022/08/09 03:45:46;;;;;;;3.60;2.30;;;;;;;;;;5075788;28;20040;-82
2022/08/09 03:48:11;;;;;;;3.67;2.38;;;;;;;;;;5060197;28;20033;-81
2022/08/09 03:50:39;;;;;;;2.20;2.00;;;;;;;;;;5060676;28;20566;-81
2022/08/09 03:53:08;;;;;;;2.65;1.95;;;;;;;;;;5077422;28;20033;-82
2022/08/09 03:55:34;;;;;;;2.20;1.83;;;;;;;;;;5075265;28;20036;-82
2022/08/09 03:58:00;;;;;;;2.47;2.10;;;;;;;;;;5058292;28;20089;-81
2022/08/09 04:00:26;;;;;;;3.47;2.13;;;;;;;;;;5075661;28;20123;-82
2022/08/09 04:02:54;;;;;;;2.88;2.17;;;;;;;;;;5075969;28;20039;-84
2022/08/09 04:05:20;;;;;;;3.28;2.10;;;;;;;;;;5057447;28;20481;-82
2022/08/09 04:07:46;;;;;;;3.22;2.10;;;;;;;;;;5074688;28;20034;-83
2022/08/09 04:10:14;;;;;;;2.97;2.15;;;;;;;;;;5074828;28;20538;-84
2022/08/09 04:12:45;;;;;;;3.38;2.20;;;;;;;;;;5075659;28;20503;-83
2022/08/09 04:15:12;;;;;;;5.57;2.00;;;;;;;;;;5075256;28;20024;-83
2022/08/09 04:17:39;;;;;;;2.58;2.20;;;;;;;;;;5075758;28;20063;-83
2022/08/09 04:20:06;;;;;;;5.47;2.20;;;;;;;;;;5041060;28;20481;-83
2022/08/09 04:22:31;;;;;;;4.10;2.10;;;;;;;;;;5075374;28;20059;-82
2022/08/09 04:24:56;;;;;;;2.40;2.15;;;;;;;;;;5075371;28;20043;-83
2022/08/09 04:27:22;;;;;;;2.83;2.30;;;;;;;;;;5075631;28;20028;-83
2022/08/09 04:29:48;;;;;;;3.00;1.90;;;;;;;;;;5057973;28;20059;-83
2022/08/09 04:32:13;;;;;;;2.83;2.00;;;;;;;;;;5057363;28;20032;-83
2022/08/09 04:34:39;;;;;;;3.05;2.08;;;;;;;;;;5074982;28;20032;-83
2022/08/09 04:37:04;;;;;;;3.20;2.15;;;;;;;;;;5075165;28;20037;-83
2022/08/09 04:39:30;;;;;;;2.70;1.90;;;;;;;;;;5075151;28;20500;-83
2022/08/09 04:41:55;;;;;;;2.88;2.00;;;;;;;;;;5075242;28;20394;-83
2022/08/09 04:44:21;;;;;;;2.22;2.03;;;;;;;;;;5074665;28;20036;-82
2022/08/09 04:46:46;;;;;;;3.05;2.40;;;;;;;;;;5057857;28;20582;-82
2022/08/09 04:49:12;;;;;;;3.95;2.20;;;;;;;;;;5057307;28;20037;-81
2022/08/09 04:51:37;;;;;;;3.70;2.30;;;;;;;;;;5075239;28;20044;-83
2022/08/09 04:54:03;;;;;;;2.90;2.10;;;;;;;;;;5074391;28;20033;-83
2022/08/09 04:56:29;;;;;;;3.10;2.55;;;;;;;;;;5074975;28;20043;-83
2022/08/09 04:58:55;;;;;;;4.30;2.30;;;;;;;;;;5057194;28;20111;-83
2022/08/09 05:01:21;;;;;;;3.45;2.30;;;;;;;;;;5074621;28;20040;-84
2022/08/09 05:03:47;;;;;;;2.80;2.50;;;;;;;;;;5041986;28;20043;-83
2022/08/09 05:06:13;;;;;;;4.65;2.55;;;;;;;;;;5058364;28;20423;-82
2022/08/09 05:08:39;;;;;;;3.63;2.33;;;;;;;;;;5074588;28;20481;-83
2022/08/09 05:11:06;;;;;;;4.55;2.65;;;;;;;;;;5073454;28;20100;-83
2022/08/09 05:13:31;;;;;;;5.05;2.58;;;;;;;;;;5040200;28;20131;-83
2022/08/09 05:15:57;;;;;;;2.78;2.35;;;;;;;;;;5056415;28;20072;-83
2022/08/09 05:18:28;;;;;;;3.42;2.20;;;;;;;;;;5074937;28;20460;-82
2022/08/09 05:20:57;;;;;;;5.35;2.25;;;;;;;;;;5074976;28;20043;-82
2022/08/09 05:23:23;;;;;;;4.85;2.38;;;;;;;;;;5075115;28;20078;-83
2022/08/09 05:25:49;;;;;;;3.00;2.50;;;;;;;;;;5074414;28;20032;-82
2022/08/09 05:28:14;;;;;;;3.80;2.40;;;;;;;;;;5057256;28;20036;-84
2022/08/09 05:30:40;;;;;;;2.85;2.22;;;;;;;;;;5074263;28;20068;-83
2022/08/09 05:33:05;;;;;;;5.85;2.60;;;;;;;;;;5075179;28;20042;-83
2022/08/09 05:35:31;;;;;;;6.30;2.72;;;;;;;;;;5074481;28;20508;-84
2022/08/09 05:37:56;;;;;;;3.08;2.28;;;;;;;;;;5074696;28;20388;-83
2022/08/09 05:40:24;;;;;;;3.97;2.35;;;;;;;;;;5074724;28;20082;-83
2022/08/09 05:42:50;;;;;;;2.80;2.50;;;;;;;;;;5074854;28;20028;-82
2022/08/09 05:45:15;;;;;;;4.43;2.50;;;;;;;;;;5073958;28;20103;-83
2022/08/09 05:47:41;;;;;;;3.38;2.40;;;;;;;;;;5074343;28;20048;-82
2022/08/09 05:50:08;;;;;;;3.40;2.63;;;;;;;;;;5074414;28;20037;-82
2022/08/09 05:52:34;;;;;;;3.25;2.33;;;;;;;;;;5056491;28;20036;-83
2022/08/09 05:55:00;;;;;;;3.95;2.50;;;;;;;;;;5074157;28;20081;-82
2022/08/09 05:57:25;;;;;;;3.05;2.40;;;;;;;;;;5074507;28;20036;-82
2022/08/09 05:59:51;;;;;;;6.97;2.63;;;;;;;;;;5074316;28;20043;-82
2022/08/09 06:02:16;;;;;;;4.55;2.50;;;;;;;;;;5074456;28;20040;-82
2022/08/09 06:04:42;;;;;;;3.83;2.67;;;;;;;;;;5057140;28;20477;-82
2022/08/09 06:07:07;;;;;;;7.72;2.88;;;;;;;;;;5077852;28;20037;-82
2022/08/09 06:09:33;;;;;;;5.05;2.60;;;;;;;;;;5076632;28;20090;-82
2022/08/09 06:11:58;;;;;;;3.35;2.25;;;;;;;;;;5078282;28;20047;-82
2022/08/09 06:14:24;;;;;;;3.80;2.50;;;;;;;;;;5059754;28;20040;-83
2022/08/09 06:16:51;;;;;;;5.82;2.60;;;;;;;;;;5060096;28;20084;-83
2022/08/09 06:19:17;;;;;;;7.32;2.60;;;;;;;;;;5077605;28;20408;-83
2022/08/09 06:21:43;;;;;;;3.33;2.45;;;;;;;;;;5077700;28;20043;-83
2022/08/09 06:24:09;;;;;;;3.42;2.30;;;;;;;;;;5076821;28;20245;-83
2022/08/09 06:26:37;;;;;;;3.95;2.63;;;;;;;;;;5078543;28;20142;-83
2022/08/09 06:29:03;;;;;;;3.85;2.20;;;;;;;;;;5078266;28;20050;-83
2022/08/09 06:31:29;;;;;;;3.78;2.30;;;;;;;;;;5077958;28;20123;-84
2022/08/09 06:33:54;;;;;;;2.88;2.30;;;;;;;;;;5077711;28;20728;-82
2022/08/09 06:36:20;;;;;;;3.05;2.55;;;;;;;;;;5077988;28;20055;-83
2022/08/09 06:38:45;;;;;;;3.97;2.10;;;;;;;;;;5060106;28;20029;-84
2022/08/09 06:41:11;;;;;;;3.28;2.13;;;;;;;;;;5077526;28;20032;-82
2022/08/09 06:43:37;;;;;;;3.28;2.20;;;;;;;;;;5077966;28;20118;-82
2022/08/09 06:46:02;;;;;;;3.13;2.22;;;;;;;;;;5075927;28;20140;-82
2022/08/09 06:48:28;;;;;;;3.13;2.30;;;;;;;;;;5077533;28;20489;-82
2022/08/09 06:50:54;;;;;;;4.35;2.10;;;;;;;;;;5059309;28;20043;-82
2022/08/09 06:53:19;;;;;;;4.60;2.17;;;;;;;;;;5059357;28;20029;-82
2022/08/09 06:55:45;;;;;;;2.97;2.10;;;;;;;;;;5076964;28;20566;-82
2022/08/09 06:58:10;;;;;;;3.67;2.20;;;;;;;;;;5076501;28;20044;-82
2022/08/09 07:00:36;;;;;;;4.30;2.00;;;;;;;;;;5077183;28;20068;-82
2022/08/09 07:03:02;;;;;;;6.22;2.25;;;;;;;;;;5077112;28;20024;-82
2022/08/09 07:05:28;;;;;;;4.57;1.90;;;;;;;;;;5076530;28;20138;-82
2022/08/09 07:07:54;;;;;;;2.22;1.73;;;;;;;;;;5077342;28;20511;-82
2022/08/09 07:10:23;;;;;;;1.90;1.70;;;;;;;;;;5075248;28;20103;-82
2022/08/09 07:12:49;;;;;;;4.15;2.10;;;;;;;;;;5076821;28;20035;-82
2022/08/09 07:15:15;;;;;;;2.72;1.80;;;;;;;;;;5076045;28;20028;-83
2022/08/09 07:17:41;;;;;;;2.40;1.92;;;;;;;;;;5076869;28;20058;-82
2022/08/09 07:20:07;;;;;;;3.78;2.00;;;;;;;;;;5076667;28;20028;-82
2022/08/09 07:22:32;;;;;;;2.67;2.05;;;;;;;;;;5075607;28;20128;-83
2022/08/09 07:24:58;;;;;;;2.75;1.90;;;;;;;;;;5058088;28;20495;-82
2022/08/09 07:27:26;;;;;;;2.58;1.90;;;;;;;;;;5058226;28;20032;-82
2022/08/09 07:29:52;;;;;;;3.47;2.10;;;;;;;;;;5077843;28;20031;-87
2022/08/09 07:32:17;;;;;;;4.13;2.20;;;;;;;;;;5077855;28;20037;-86
2022/08/09 07:34:43;;;;;;;2.55;2.00;;;;;;;;;;5077600;28;20051;-83
2022/08/09 07:37:09;;;;;;;2.15;1.67;;;;;;;;;;5076586;28;20029;-82
2022/08/09 07:39:34;;;;;;;2.65;1.85;;;;;;;;;;5058751;28;20067;-83
2022/08/09 07:42:01;;;;;;;4.07;2.10;;;;;;;;;;5076231;28;20081;-82
2022/08/09 07:44:26;;;;;;;4.20;1.80;;;;;;;;;;5075519;28;20098;-82
2022/08/09 07:46:52;;;;;;;2.38;1.98;;;;;;;;;;5076062;28;20404;-82
2022/08/09 07:49:17;;;;;;;2.75;1.90;;;;;;;;;;5075530;28;20028;-82
2022/08/09 07:51:43;;;;;;;2.75;1.95;;;;;;;;;;5076171;28;20045;-83
2022/08/09 07:54:08;;;;;;;2.60;2.22;;;;;;;;;;5076076;28;20181;-82
2022/08/09 07:56:36;;;;;;;3.72;2.10;;;;;;;;;;5076069;28;20523;-82
2022/08/09 07:59:01;;;;;;;2.72;2.25;;;;;;;;;;5075769;28;20028;-82
2022/08/09 08:01:27;;;;;;;4.45;2.00;;;;;;;;;;5075866;28;20506;-82
2022/08/09 08:03:52;;;;;;;3.60;2.15;;;;;;;;;;5075878;28;20032;-82
2022/08/09 08:06:18;;;;;;;4.82;2.20;;;;;;;;;;5075211;28;20032;-82
2022/08/09 08:08:43;;;;;;;2.88;2.00;;;;;;;;;;5074286;28;20078;-81
2022/08/09 08:11:09;;;;;;;3.05;2.10;;;;;;;;;;5075693;28;20033;-82
2022/08/09 08:13:34;;;;;;;7.07;1.90;;;;;;;;;;5075333;28;20451;-82
2022/08/09 08:16:00;;;;;;;2.85;2.00;;;;;;;;;;5074968;28;20032;-83
2022/08/09 08:18:25;;;;;;;2.33;2.00;;;;;;;;;;5075710;28;20025;-82
2022/08/09 08:20:50;;;;;;;4.07;2.10;;;;;;;;;;5075531;28;20064;-83
2022/08/09 08:23:17;;;;;;;3.25;2.10;;;;;;;;;;5074969;28;20032;-83
2022/08/09 08:25:47;;;;;;;3.28;2.10;;;;;;;;;;5075216;28;20500;-83
2022/08/09 08:28:13;;;;;;;3.83;2.10;;;;;;;;;;5075108;28;20036;-83
2022/08/09 08:30:39;;;;;;;4.18;2.00;;;;;;;;;;5075260;28;20024;-83
2022/08/09 08:33:04;;;;;;;5.07;2.10;;;;;;;;;;5076237;28;20039;-84
2022/08/09 08:35:30;;;;;;;2.60;1.90;;;;;;;;;;5074151;28;20043;-83
2022/08/09 08:37:56;;;;;;;3.00;1.80;;;;;;;;;;5074620;28;20028;-84
2022/08/09 08:40:21;;;;;;;2.35;1.90;;;;;;;;;;5074772;28;20119;-82
2022/08/09 08:42:47;;;;;;;3.85;1.98;;;;;;;;;;5057255;28;20028;-83
2022/08/09 08:45:15;;;;;;;2.55;1.70;;;;;;;;;;5074429;28;20056;-84
2022/08/09 08:47:43;;;;;;;5.20;1.85;;;;;;;;;;5074924;28;20091;-83
2022/08/09 08:50:14;;;;;;;2.95;1.80;;;;;;;;;;5075555;28;20119;-83
2022/08/09 08:52:40;;;;;;;3.05;1.80;;;;;;;;;;5074853;28;20060;-83
2022/08/09 08:55:06;;;;;;;5.75;1.90;;;;;;;;;;5074088;28;20477;-82
2022/08/09 08:57:32;;;;;;;3.42;1.50;;;;;;;;;;5075191;28;20048;-83
2022/08/09 08:59:57;;;;;;;4.13;1.80;;;;;;;;;;5056642;28;20481;-83
2022/08/09 09:02:28;;;;;;;3.20;1.70;;;;;;;;;;5057108;28;20106;-82
2022/08/09 09:04:58;;;;;;;9.38;1.90;;;;;;;;;;5074296;28;20120;-84
2022/08/09 09:07:25;;;;;;;4.55;1.92;;;;;;;;;;5056644;28;20055;-83
2022/08/09 09:09:52;;;;;;;2.25;1.60;;;;;;;;;;5055320;28;20036;-83
2022/08/09 09:12:20;;;;;;;7.82;1.90;;;;;;;;;;5074652;28;20036;-83
2022/08/09 09:14:46;;;;;;;3.22;1.70;;;;;;;;;;5074353;28;20034;-83
2022/08/09 09:17:13;;;;;;;4.82;2.00;;;;;;;;;;5056839;28;20040;-83
2022/08/09 09:19:39;;;;;;;4.97;1.60;;;;;;;;;;5074466;28;20043;-82
2022/08/09 09:22:12;;;;;;;7.38;1.80;;;;;;;;;;5074666;28;20036;-82
2022/08/09 09:24:47;;;;;;;2.67;1.60;;;;;;;;;;5056338;28;20040;-82
2022/08/09 09:27:16;;;;;;;4.93;1.67;;;;;;;;;;5074672;28;20040;-82
2022/08/09 09:29:43;;;;;;;4.60;1.60;;;;;;;;;;5074706;28;20032;-82
2022/08/09 09:32:10;;;;;;;5.07;1.67;;;;;;;;;;5075344;28;20028;-84
2022/08/09 09:34:36;;;;;;;3.38;1.90;;;;;;;;;;5056545;28;20420;-82
2022/08/09 09:37:04;;;;;;;5.68;1.83;;;;;;;;;;5075472;28;20024;-82
2022/08/09 09:39:31;;;;;;;2.72;1.67;;;;;;;;;;5076601;28;20047;-82
2022/08/09 09:41:57;;;;;;;2.88;1.73;;;;;;;;;;5078281;28;20032;-82
2022/08/09 09:44:33;;;;;;;3.78;1.65;;;;;;;;;;5077625;28;20124;-82
2022/08/09 09:47:05;;;;;;;2.40;1.80;;;;;;;;;;5078219;28;20033;-82
2022/08/09 09:49:30;;;;;;;6.82;2.00;;;;;;;;;;5078773;28;20052;-82
2022/08/09 09:52:02;;;;;;;4.88;1.88;;;;;;;;;;5078231;28;20043;-83
2022/08/09 09:54:35;;;;;;;2.63;1.70;;;;;;;;;;5077639;28;20043;-82
2022/08/09 09:57:21;;;;;;;7.20;1.85;;;;;;;;;;5079529;28;20663;-82
2022/08/09 09:59:49;;;;;;;3.25;1.58;;;;;;;;;;5078519;28;20620;-81
2022/08/09 10:02:17;;;;;;;3.80;1.80;;;;;;;;;;5078407;28;20122;-82
2022/08/09 10:04:43;;;;;;;6.28;2.00;;;;;;;;;;5059788;28;20056;-82
2022/08/09 10:07:25;;;;;;;2.40;1.70;;;;;;;;;;5078205;28;20053;-82
2022/08/09 10:09:54;;;;;;;3.80;1.70;;;;;;;;;;5077270;28;20054;-82
2022/08/09 10:12:29;;;;;;;2.92;2.00;;;;;;;;;;5043261;28;20035;-82
2022/08/09 10:15:14;;;;;;;4.97;1.75;;;;;;;;;;5078436;28;20048;-82
2022/08/09 10:17:45;;;;;;;4.13;1.77;;;;;;;;;;5078459;28;20089;-82
2022/08/09 10:20:20;;;;;;;2.85;1.80;;;;;;;;;;5077938;28;20489;-82
2022/08/09 10:22:52;;;;;;;2.83;1.90;;;;;;;;;;5059912;28;20499;-82
2022/08/09 10:25:18;;;;;;;3.42;1.60;;;;;;;;;;5077353;28;20048;-82
2022/08/09 10:27:45;;;;;;;2.85;1.77;;;;;;;;;;5077465;28;20032;-82
2022/08/09 10:30:11;;;;;;;4.18;2.08;;;;;;;;;;5077269;28;20048;-82
2022/08/09 10:32:37;;;;;;;5.15;1.80;;;;;;;;;;5059993;28;20064;-81
2022/08/09 10:35:04;;;;;;;4.03;1.90;;;;;;;;;;5058852;28;20108;-83
2022/08/09 10:37:30;;;;;;;4.38;1.80;;;;;;;;;;5059391;28;20060;-82
2022/08/09 10:39:58;;;;;;;6.63;2.10;;;;;;;;;;5076982;28;20477;-82
2022/08/09 10:42:23;;;;;;;10.75;2.08;;;;;;;;;;5077205;28;20025;-83
2022/08/09 10:45:00;;;;;;;3.72;1.60;;;;;;;;;;5076450;28;20048;-83
2022/08/09 10:48:01;;;;;;;4.95;1.80;;;;;;;;;;5076867;28;20045;-85
2022/08/09 10:53:31;;;;;;;;;;;;;;;;;;5077593;28;20043;-83
2022/08/09 10:56:32;;;;;;;5.00;1.92;;;;;;;;;;5041842;28;20311;-82
2022/08/09 10:58:59;;;;;;;5.07;1.90;;;;;;;;;;5073514;28;20079;-82
2022/08/09 11:01:31;;;;;;;3.22;1.73;;;;;;;;;;5078275;28;20043;-87
2022/08/09 11:04:10;;;;;;;3.83;1.70;;;;;;;;;;5042236;28;20063;-81
2022/08/09 11:06:38;;;;;;;2.10;1.50;;;;;;;;;;5075481;28;20086;-83
2022/08/09 11:09:05;;;;;;;3.17;1.90;;;;;;;;;;5075198;28;20032;-84
2022/08/09 11:11:53;;;;;;;5.18;1.83;;;;;;;;;;5076293;28;20450;-83
2022/08/09 11:14:40;;;;;;;3.17;1.63;;;;;;;;;;5041957;28;20040;-83
2022/08/09 11:17:12;;;;;;;6.22;1.80;;;;;;;;;;5076544;28;20397;-84
2022/08/09 11:20:09;;;;;;;7.63;1.90;;;;;;;;;;5076669;28;20401;-83
2022/08/09 11:22:44;;;;;;;3.30;1.80;;;;;;;;;;5076096;28;20020;-83
2022/08/09 11:25:16;;;;;;;3.08;1.80;;;;;;;;;;5057230;28;20090;-82
2022/08/09 11:27:51;;;;;;;6.07;1.90;;;;;;;;;;5058153;28;20539;-83
2022/08/09 11:30:22;;;;;;;4.70;1.75;;;;;;;;;;5076751;28;20763;-82
2022/08/09 11:33:07;;;;;;;6.47;1.92;;;;;;;;;;5058725;28;20040;-83
2022/08/09 11:35:39;;;;;;;5.25;1.90;;;;;;;;;;5057459;28;20044;-83
2022/08/09 11:38:15;;;;;;;8.52;1.90;;;;;;;;;;5076793;28;20028;-84
2022/08/09 11:40:40;;;;;;;5.03;1.75;;;;;;;;;;5076534;28;20447;-83
2022/08/09 11:43:07;;;;;;;3.53;1.80;;;;;;;;;;5076593;28;20503;-83
2022/08/09 11:45:41;;;;;;;3.83;1.88;;;;;;;;;;5075497;28;20500;-82
2022/08/09 11:48:23;;;;;;;4.00;1.70;;;;;;;;;;5076893;28;20032;-83
2022/08/09 11:50:58;;;;;;;4.45;1.75;;;;;;;;;;5076130;28;20035;-83
2022/08/09 11:53:24;;;;;;;6.97;1.90;;;;;;;;;;5076097;28;20514;-84
2022/08/09 11:55:51;;;;;;;5.18;1.83;;;;;;;;;;5075565;28;20024;-83
2022/08/09 11:58:17;;;;;;;9.38;1.70;;;;;;;;;;5076074;28;20093;-83
2022/08/09 12:00:54;;;;;;;3.70;1.67;;;;;;;;;;5074992;28;20024;-84
2022/08/09 12:03:23;;;;;;;4.55;1.90;;;;;;;;;;5074853;28;20412;-84
2022/08/09 12:05:50;;;;;;;4.15;1.90;;;;;;;;;;5074987;28;20527;-82
2022/08/09 12:08:18;;;;;;;5.70;1.88;;;;;;;;;;5057204;28;20040;-82
2022/08/09 12:10:49;;;;;;;3.80;1.77;;;;;;;;;;5056289;28;20405;-82
2022/08/09 12:13:38;;;;;;;4.45;2.05;;;;;;;;;;5057735;28;20044;-83
2022/08/09 12:16:15;;;;;;;3.17;1.70;;;;;;;;;;5075087;28;20037;-82
2022/08/09 12:18:47;;;;;;;5.72;1.83;;;;;;;;;;5057477;28;20032;-83
2022/08/09 12:21:22;;;;;;;5.47;1.70;;;;;;;;;;5075645;28;20029;-82
2022/08/09 12:23:49;;;;;;;3.25;1.80;;;;;;;;;;5075674;28;20047;-82
2022/08/09 12:26:15;;;;;;;2.63;1.50;;;;;;;;;;5056780;28;20059;-82
2022/08/09 12:28:49;;;;;;;2.78;1.60;;;;;;;;;;5073748;28;20032;-85
2022/08/09 12:31:25;;;;;;;3.83;1.77;;;;;;;;;;5059445;28;20032;-82
2022/08/09 12:33:52;;;;;;;3.17;1.85;;;;;;;;;;5057633;28;20044;-85
2022/08/09 12:36:18;;;;;;;5.25;1.70;;;;;;;;;;5075312;28;20479;-85
2022/08/09 12:38:44;;;;;;;2.70;1.70;;;;;;;;;;5075033;28;20119;-86
2022/08/09 12:41:10;;;;;;;3.25;1.67;;;;;;;;;;5056916;28;20036;-85
2022/08/09 12:43:36;;;;;;;9.10;1.83;;;;;;;;;;5074650;28;20116;-85
2022/08/09 12:46:02;;;;;;;4.15;1.70;;;;;;;;;;5074363;28;20056;-86
2022/08/09 12:48:29;;;;;;;2.65;1.58;;;;;;;;;;5074659;28;20040;-84
2022/08/09 12:50:55;;;;;;;3.67;1.70;;;;;;;;;;5040689;28;20036;-84
2022/08/09 12:53:32;;;;;;;2.55;1.55;;;;;;;;;;5074482;28;20469;-84
2022/08/09 12:56:09;;;;;;;7.75;1.88;;;;;;;;;;5074419;28;20120;-86
2022/08/09 12:58:37;;;;;;;4.25;1.60;;;;;;;;;;5056140;28;20040;-86
2022/08/09 13:01:04;;;;;;;7.00;1.50;;;;;;;;;;5074243;28;20037;-86
2022/08/09 13:03:33;;;;;;;2.03;1.33;;;;;;;;;;5074361;28;20180;-84
2022/08/09 13:05:58;;;;;;;3.50;1.60;;;;;;;;;;5074307;28;20032;-83
2022/08/09 13:08:24;;;;;;;4.05;1.40;;;;;;;;;;5074057;28;20042;-86
2022/08/09 13:10:51;;;;;;;2.50;1.40;;;;;;;;;;5072952;28;20032;-84
2022/08/09 13:13:32;;;;;;;2.55;1.60;;;;;;;;;;5056344;28;20041;-86
2022/08/09 13:15:59;;;;;;;3.85;1.48;;;;;;;;;;5056227;28;20032;-84
2022/08/09 13:18:27;;;;;;;3.03;1.50;;;;;;;;;;5075773;28;20016;-85
2022/08/09 13:20:54;;;;;;;1.90;1.30;;;;;;;;;;5075904;28;20087;-85
2022/08/09 13:23:20;;;;;;;1.60;1.38;;;;;;;;;;5075158;28;20071;-86
2022/08/09 13:25:48;;;;;;;4.70;1.45;;;;;;;;;;5074003;28;20024;-86
2022/08/09 13:28:17;;;;;;;2.25;1.50;;;;;;;;;;5074016;28;20093;-85
2022/08/09 13:30:43;;;;;;;3.75;1.38;;;;;;;;;;5074359;28;20083;-86
2022/08/09 13:33:10;;;;;;;3.80;1.58;;;;;;;;;;5074202;28;20029;-85
2022/08/09 13:35:35;;;;;;;2.95;1.40;;;;;;;;;;5073882;28;20036;-86
2022/08/09 13:38:01;;;;;;;5.53;1.40;;;;;;;;;;5056422;28;20032;-86
2022/08/09 13:40:27;;;;;;;5.22;1.40;;;;;;;;;;5074298;28;20411;-87
2022/08/09 13:42:53;;;;;;;2.08;1.30;;;;;;;;;;5073880;28;20424;-86
2022/08/09 13:45:18;;;;;;;2.78;1.60;;;;;;;;;;5055347;28;20032;-87
2022/08/09 13:47:44;;;;;;;3.35;1.40;;;;;;;;;;5073781;28;20040;-86
2022/08/09 13:50:15;;;;;;;2.95;1.27;;;;;;;;;;5074258;28;20036;-86
2022/08/09 13:52:41;;;;;;;3.67;1.50;;;;;;;;;;5073937;28;20044;-85
2022/08/09 13:55:08;;;;;;;2.83;1.20;;;;;;;;;;5073623;28;20677;-86
2022/08/09 13:57:52;;;;;;;2.75;1.45;;;;;;;;;;5074643;28;20024;-85
2022/08/09 14:00:18;;;;;;;;;;;;;;;;;;5040666;28;20028;-83
2022/08/09 14:02:49;;;;;;;6.28;1.63;;;;;;;;;;5057984;28;19912;-83
2022/08/09 14:05:15;;;;;;;5.18;1.50;;;;;;;;;;5056446;28;20028;-86
2022/08/09 14:07:41;;;;;;;4.57;1.65;;;;;;;;;;5056870;28;20025;-85
2022/08/09 14:10:08;;;;;;;2.55;1.38;;;;;;;;;;5054952;28;20048;-87
2022/08/09 14:12:34;;;;;;;3.50;1.20;;;;;;;;;;5055344;28;20086;-86
2022/08/09 14:14:59;;;;;;;5.30;1.52;;;;;;;;;;5072039;28;20037;-85
2022/08/09 14:17:25;;;;;;;4.28;1.40;;;;;;;;;;5038770;28;20040;-86
2022/08/09 14:19:56;;;;;;;1.58;1.30;;;;;;;;;;5073832;28;20043;-90
2022/08/09 14:22:21;;;;;;;4.55;1.52;;;;;;;;;;5075179;28;20025;-83
2022/08/09 14:24:47;;;;;;;2.13;1.30;;;;;;;;;;5073724;28;20127;-83
2022/08/09 14:27:12;;;;;;;2.40;1.20;;;;;;;;;;5077182;28;20037;-83
2022/08/09 14:29:38;;;;;;;1.90;1.27;;;;;;;;;;5076858;28;20033;-84
2022/08/09 14:32:04;;;;;;;1.67;1.20;;;;;;;;;;5079373;28;20044;-83
2022/08/09 14:34:30;;;;;;;3.63;1.10;;;;;;;;;;5075708;28;20032;-83
2022/08/09 14:36:55;;;;;;;2.95;1.40;;;;;;;;;;5077102;28;20388;-83
2022/08/09 14:39:21;;;;;;;2.15;1.20;;;;;;;;;;5058898;28;20040;-83
2022/08/09 14:41:46;;;;;;;2.92;1.13;;;;;;;;;;5076999;28;20036;-82
2022/08/09 14:44:12;;;;;;;1.92;1.10;;;;;;;;;;5058112;28;20047;-84
2022/08/09 14:46:38;;;;;;;1.63;1.20;;;;;;;;;;5076613;28;20036;-84
2022/08/09 14:49:04;;;;;;;3.50;1.20;;;;;;;;;;5077000;28;20036;-84
2022/08/09 14:51:29;;;;;;;3.40;1.20;;;;;;;;;;5058904;28;20033;-84
2022/08/09 14:53:55;;;;;;;1.52;1.00;;;;;;;;;;5076405;28;20058;-82